This is the latest recevied weather packets stored in our database for station/object IK0OZB-10. If no packets are shown the sender has not sent any weather packets the latest 10 day(s).
| Time | Temp. | Humidity | Pressure | Rain* | Wind** | Luminosity | Snow |
|---|---|---|---|---|---|---|---|
| 1776907597 | 14.44° C | 59% | 1017.7 hPa | - | - | - | - |
| 1776906697 | 14.44° C | 61% | 1017.6 hPa | - | - | - | - |
| 1776905796 | 14.44° C | 69% | 1017.6 hPa | - | - | - | - |
| 1776904896 | 15° C | 74% | 1017.5 hPa | - | - | - | - |
| 1776903996 | 15.56° C | 72% | 1017.4 hPa | - | - | - | - |
| 1776903096 | 15.56° C | 75% | 1017.2 hPa | - | - | - | - |
| 1776902196 | 15.56° C | 68% | 1017.4 hPa | - | - | - | - |
| 1776901296 | 15.56° C | 75% | 1017.3 hPa | - | - | - | - |
| 1776900396 | 16.11° C | 73% | 1017.5 hPa | - | - | - | - |
| 1776899496 | 16.11° C | 76% | 1017.3 hPa | - | - | - | - |
| 1776898595 | 15.56° C | 79% | 1017.2 hPa | - | - | - | - |
| 1776897695 | 16.11° C | 75% | 1017.2 hPa | - | - | - | - |
| 1776896795 | 16.11° C | 75% | 1017.2 hPa | - | - | - | - |
| 1776895895 | 16.67° C | 76% | 1017.1 hPa | - | - | - | - |
| 1776894995 | 16.67° C | 75% | 1017 hPa | - | - | - | - |
| 1776894095 | 16.11° C | 74% | 1016.9 hPa | - | - | - | - |
| 1776893195 | 16.11° C | 78% | 1016.7 hPa | - | - | - | - |
| 1776892294 | 16.67° C | 77% | 1016.6 hPa | - | - | - | - |
| 1776891394 | 17.22° C | 76% | 1016.6 hPa | - | - | - | - |
| 1776890494 | 17.78° C | 77% | 1016.5 hPa | - | - | - | - |
| 1776889594 | 17.22° C | 79% | 1016.2 hPa | - | - | - | - |
| 1776888694 | 17.22° C | 80% | 1016.3 hPa | - | - | - | - |
| 1776887794 | 17.22° C | 82% | 1016 hPa | - | - | - | - |
| 1776886894 | 17.22° C | 81% | 1016.1 hPa | - | - | - | - |
| 1776885994 | 17.78° C | 80% | 1016.1 hPa | - | - | - | - |
* Rain since midnight (hover to see other rain measurements)
** Current wind speed in m/s (hover to see current wind gust speed)